Time;durP1;ratioP1;P1;durP2;ratioP2;P2;SDS_P1;SDS_P2;PMS_P1;PMS_P2;Temp;Humidity;BMP_temperature;BMP_pressure;BME280_temperature;BME280_humidity;BME280_pressure;Samples;Min_cycle;Max_cycle;Signal;HPM_P1;HPM_P2
2024/01/04 00:02:20;;;;;;;;;4.50;1.75;;;;;8.56;98.46;99428.47;4952851;28;10170;-65
2024/01/04 00:04:46;;;;;;;;;2.00;1.00;;;;;8.48;99.01;99420.69;4953672;28;10653;-65
2024/01/04 00:07:13;;;;;;;;;2.00;2.00;;;;;8.47;98.61;99438.63;4942700;28;10234;-66
2024/01/04 00:09:40;;;;;;;;;2.00;0.00;;;;;8.46;99.26;99442.34;4951312;28;10143;-66
2024/01/04 00:12:06;;;;;;;;;1.00;1.00;;;;;8.46;99.05;99454.94;4954883;28;11169;-67
2024/01/04 00:14:33;;;;;;;;;1.00;1.00;;;;;8.43;98.15;99448.16;4951242;28;10339;-67
2024/01/04 00:17:00;;;;;;;;;1.00;1.00;;;;;8.41;98.40;99452.88;4960841;28;10440;-67
2024/01/04 00:19:26;;;;;;;;;2.75;1.00;;;;;8.37;97.53;99460.53;4948765;28;10244;-67
2024/01/04 00:21:53;;;;;;;;;2.00;1.00;;;;;8.31;98.59;99456.00;4946893;28;10284;-68
2024/01/04 00:24:20;;;;;;;;;1.00;0.00;;;;;8.35;99.09;99462.59;4944762;28;10414;-67
2024/01/04 00:26:46;;;;;;;;;0.00;0.00;;;;;8.40;97.98;99464.66;4949042;28;10555;-67
2024/01/04 00:29:13;;;;;;;;;3.00;0.75;;;;;8.42;98.31;99470.63;4939721;28;10261;-65
2024/01/04 00:31:41;;;;;;;;;1.00;0.50;;;;;8.46;98.13;99477.19;4946680;28;10443;-68
2024/01/04 00:34:08;;;;;;;;;4.50;3.00;;;;;8.41;97.87;99493.13;4943661;28;10355;-66
2024/01/04 00:36:35;;;;;;;;;0.75;0.75;;;;;8.44;97.39;99498.06;4947324;28;10490;-67
2024/01/04 00:39:01;;;;;;;;;2.00;1.00;;;;;8.45;97.41;99498.88;4943658;28;10456;-67
2024/01/04 00:41:28;;;;;;;;;2.50;1.00;;;;;8.42;97.63;99500.94;4949030;28;10325;-67
2024/01/04 00:43:55;;;;;;;;;0.50;0.50;;;;;8.45;97.77;99506.91;4966697;28;10528;-67
2024/01/04 00:46:21;;;;;;;;;1.00;0.00;;;;;8.45;97.44;99499.69;4938509;28;10327;-66
2024/01/04 00:48:48;;;;;;;;;0.00;0.00;;;;;8.42;97.55;99508.97;4952190;28;10381;-66
2024/01/04 00:51:14;;;;;;;;;0.00;0.00;;;;;8.37;97.12;99516.03;4941309;28;10317;-66
2024/01/04 00:53:41;;;;;;;;;0.25;0.25;;;;;8.38;96.57;99528.38;4943486;28;10460;-68
2024/01/04 00:56:08;;;;;;;;;0.00;0.00;;;;;8.35;96.77;99537.66;4948487;28;11010;-68
2024/01/04 00:58:35;;;;;;;;;1.00;1.00;;;;;8.41;97.44;99525.28;4970073;28;10404;-66
2024/01/04 01:01:04;;;;;;;;;0.00;0.00;;;;;8.45;96.73;99536.41;4946124;28;10465;-65
2024/01/04 01:03:33;;;;;;;;;0.00;0.00;;;;;8.50;96.69;99547.31;4951742;28;11182;-67
2024/01/04 01:05:59;;;;;;;;;0.00;0.00;;;;;8.51;96.60;99547.13;4949923;28;10441;-66
2024/01/04 01:08:26;;;;;;;;;0.25;0.25;;;;;8.51;96.41;99557.84;4949509;28;10350;-65
2024/01/04 01:10:52;;;;;;;;;0.50;0.50;;;;;8.45;96.05;99568.59;4949008;28;11067;-67
2024/01/04 01:13:22;;;;;;;;;1.00;1.00;;;;;8.45;96.20;99565.91;4953675;28;10403;-67
2024/01/04 01:15:49;;;;;;;;;0.25;0.25;;;;;8.49;96.08;99569.81;4950918;28;10578;-66
2024/01/04 01:18:15;;;;;;;;;0.75;0.75;;;;;8.53;96.44;99571.03;4938724;29;10432;-65
2024/01/04 01:20:42;;;;;;;;;2.75;1.25;;;;;8.49;95.92;99576.00;4949023;28;10183;-65
2024/01/04 01:23:09;;;;;;;;;0.50;0.50;;;;;8.46;96.01;99587.16;4949726;28;10336;-67
2024/01/04 01:25:35;;;;;;;;;1.75;0.00;;;;;8.44;95.88;99591.91;4950864;28;10263;-66
2024/01/04 01:28:02;;;;;;;;;1.00;1.00;;;;;8.43;95.62;99584.91;4935039;28;10476;-67
2024/01/04 01:30:29;;;;;;;;;0.00;0.00;;;;;8.43;95.66;99590.28;4949470;28;10348;-67
2024/01/04 01:32:56;;;;;;;;;1.00;1.00;;;;;8.38;95.81;99606.97;4954119;28;10229;-66
2024/01/04 01:35:23;;;;;;;;;0.75;0.75;;;;;8.40;96.18;99612.97;4953196;28;10349;-66
2024/01/04 01:37:50;;;;;;;;;0.00;0.00;;;;;8.42;95.59;99624.28;4954443;28;10421;-65
2024/01/04 01:40:16;;;;;;;;;1.00;1.00;;;;;8.47;95.67;99628.19;4956203;28;10391;-67
2024/01/04 01:42:49;;;;;;;;;1.00;0.25;;;;;8.45;95.52;99644.50;4956718;28;10429;-65
2024/01/04 01:45:16;;;;;;;;;0.00;0.00;;;;;8.43;95.53;99649.28;4953410;28;10255;-67
2024/01/04 01:47:47;;;;;;;;;0.00;0.00;;;;;8.42;95.66;99651.09;4975827;23;10990;-67
2024/01/04 01:50:20;;;;;;;;;0.00;0.00;;;;;8.47;95.17;99658.53;4952825;28;10339;-68
2024/01/04 01:52:49;;;;;;;;;2.00;0.25;;;;;8.50;95.22;99659.97;4953360;28;10093;-68
2024/01/04 01:55:16;;;;;;;;;0.25;0.25;;;;;8.50;94.87;99663.47;4953266;28;10333;-67
2024/01/04 01:57:43;;;;;;;;;0.00;0.00;;;;;8.52;94.81;99668.63;4952203;28;10339;-69
2024/01/04 02:00:12;;;;;;;;;0.00;0.00;;;;;8.50;95.14;99673.38;4969414;28;10332;-69
2024/01/04 02:02:44;;;;;;;;;0.00;0.00;;;;;8.49;95.03;99669.88;4952763;28;10360;-68
2024/01/04 02:05:12;;;;;;;;;0.00;0.00;;;;;8.47;94.15;99669.28;4951729;28;10308;-68
2024/01/04 02:07:39;;;;;;;;;0.00;0.00;;;;;8.43;94.86;99673.41;4951932;28;10261;-68
2024/01/04 02:10:07;;;;;;;;;0.00;0.00;;;;;8.44;95.46;99676.91;4951890;28;10364;-69
2024/01/04 02:12:33;;;;;;;;;0.00;0.00;;;;;8.38;94.51;99676.69;4954197;28;11257;-67
2024/01/04 02:15:00;;;;;;;;;0.00;0.00;;;;;8.33;94.56;99684.50;4966576;28;10333;-66
2024/01/04 02:17:28;;;;;;;;;0.00;0.00;;;;;8.20;94.46;99683.69;4954026;28;10310;-69
2024/01/04 02:19:57;;;;;;;;;0.00;0.00;;;;;8.16;94.64;99686.78;4950939;28;10305;-69
2024/01/04 02:22:24;;;;;;;;;0.00;0.00;;;;;8.19;94.91;99688.25;4951433;28;10456;-69
2024/01/04 02:24:50;;;;;;;;;0.00;0.00;;;;;8.23;94.99;99686.81;4953276;28;10363;-68
2024/01/04 02:27:17;;;;;;;;;0.00;0.00;;;;;8.25;94.49;99692.75;4966935;28;10230;-68
2024/01/04 02:29:44;;;;;;;;;0.00;0.00;;;;;8.29;94.66;99691.31;4947668;28;10453;-69
2024/01/04 02:32:11;;;;;;;;;0.00;0.00;;;;;8.29;94.11;99696.69;4952730;28;10334;-69
2024/01/04 02:34:37;;;;;;;;;1.00;0.00;;;;;8.32;94.44;99704.31;4956141;28;10325;-69
2024/01/04 02:37:04;;;;;;;;;1.00;0.00;;;;;8.29;94.18;99701.22;4955289;28;10442;-69
2024/01/04 02:39:31;;;;;;;;;0.00;0.00;;;;;8.31;94.13;99697.31;4939502;28;11150;-69
2024/01/04 02:41:58;;;;;;;;;0.00;0.00;;;;;8.33;94.33;99694.41;4951166;28;10299;-69
2024/01/04 02:44:24;;;;;;;;;0.00;0.00;;;;;8.30;94.30;99710.91;4951948;28;10296;-68
2024/01/04 02:46:51;;;;;;;;;0.00;0.00;;;;;8.30;93.91;99713.59;4951829;28;10225;-68
2024/01/04 02:49:19;;;;;;;;;0.00;0.00;;;;;8.31;93.67;99718.75;4958932;28;10362;-68
2024/01/04 02:51:45;;;;;;;;;0.00;0.00;;;;;8.31;93.60;99721.44;4951894;28;10077;-68
2024/01/04 02:54:12;;;;;;;;;0.00;0.00;;;;;8.32;94.04;99723.09;4951483;28;10438;-69
2024/01/04 02:56:39;;;;;;;;;0.00;0.00;;;;;8.33;93.70;99734.63;4950265;28;10211;-70
2024/01/04 02:59:07;;;;;;;;;0.00;0.00;;;;;8.31;93.85;99734.03;4953348;28;10257;-68
2024/01/04 03:01:34;;;;;;;;;0.00;0.00;;;;;8.30;93.82;99743.91;4950965;28;10325;-68
2024/01/04 03:04:00;;;;;;;;;0.00;0.00;;;;;8.34;93.71;99741.63;4951193;28;10303;-69
2024/01/04 03:06:29;;;;;;;;;0.00;0.00;;;;;8.39;93.82;99741.91;4952291;28;10447;-68
2024/01/04 03:08:56;;;;;;;;;0.00;0.00;;;;;8.41;93.25;99745.19;4952707;28;10201;-70
2024/01/04 03:11:23;;;;;;;;;0.00;0.00;;;;;8.42;93.29;99749.50;4952030;28;10333;-68
2024/01/04 03:13:49;;;;;;;;;0.00;0.00;;;;;8.42;93.35;99752.19;4960523;28;10287;-68
2024/01/04 03:16:19;;;;;;;;;0.00;0.00;;;;;8.42;93.27;99757.53;4951834;28;10449;-68
2024/01/04 03:18:46;;;;;;;;;0.00;0.00;;;;;8.40;93.46;99749.72;4951462;28;10307;-68
2024/01/04 03:21:14;;;;;;;;;0.00;0.00;;;;;8.38;93.57;99762.50;4943079;28;10304;-68
2024/01/04 03:23:40;;;;;;;;;0.00;0.00;;;;;8.34;93.55;99769.28;4952414;28;10440;-68
2024/01/04 03:26:07;;;;;;;;;0.00;0.00;;;;;8.35;93.57;99776.31;4951680;28;10621;-69
2024/01/04 03:28:34;;;;;;;;;1.00;0.00;;;;;8.36;94.01;99785.16;4951847;28;10468;-68
2024/01/04 03:31:01;;;;;;;;;0.00;0.00;;;;;8.36;93.67;99777.94;4966704;28;10476;-68
2024/01/04 03:33:28;;;;;;;;;0.00;0.00;;;;;8.39;93.98;99784.81;4951068;28;10556;-68
2024/01/04 03:35:55;;;;;;;;;0.00;0.00;;;;;8.41;93.43;99788.91;4951711;28;11198;-68
2024/01/04 03:38:22;;;;;;;;;0.00;0.00;;;;;8.45;93.69;99794.69;4951736;28;10414;-68
2024/01/04 03:40:48;;;;;;;;;0.00;0.00;;;;;8.45;93.83;99800.06;4952002;28;10518;-68
2024/01/04 03:43:15;;;;;;;;;0.00;0.00;;;;;8.44;93.64;99798.41;4950249;28;10493;-68
2024/01/04 03:45:41;;;;;;;;;0.00;0.00;;;;;8.43;94.12;99799.44;4951847;28;10439;-68
2024/01/04 03:48:08;;;;;;;;;0.00;0.00;;;;;8.42;93.65;99798.59;4950945;28;10332;-68
2024/01/04 03:50:35;;;;;;;;;0.00;0.00;;;;;8.45;93.73;99796.53;4950936;28;10891;-68
2024/01/04 03:53:02;;;;;;;;;0.00;0.00;;;;;8.46;94.19;99799.00;4951440;28;10304;-68
2024/01/04 03:55:28;;;;;;;;;0.00;0.00;;;;;8.44;94.54;99798.41;4963740;28;10372;-68
2024/01/04 03:57:56;;;;;;;;;0.00;0.00;;;;;8.44;94.26;99813.69;4948064;28;10319;-68
2024/01/04 04:00:22;;;;;;;;;0.00;0.00;;;;;8.44;94.18;99805.63;4951530;28;10283;-68
2024/01/04 04:02:51;;;;;;;;;0.00;0.00;;;;;8.46;94.45;99811.59;4951720;28;10538;-68
2024/01/04 04:05:18;;;;;;;;;0.25;0.00;;;;;8.45;94.54;99801.91;4950610;28;10382;-68
2024/01/04 04:07:44;;;;;;;;;0.00;0.00;;;;;8.47;94.62;99811.41;4948770;28;10316;-68
2024/01/04 04:10:11;;;;;;;;;0.00;0.00;;;;;8.47;94.74;99813.25;4949657;28;10176;-68
2024/01/04 04:12:38;;;;;;;;;0.00;0.00;;;;;8.48;94.53;99809.56;4950743;28;10291;-68
2024/01/04 04:15:04;;;;;;;;;0.00;0.00;;;;;8.49;95.16;99814.69;4949576;28;10302;-68
2024/01/04 04:17:34;;;;;;;;;0.00;0.00;;;;;8.51;95.01;99817.19;4950127;28;10383;-68
2024/01/04 04:20:01;;;;;;;;;0.00;0.00;;;;;8.51;94.71;99820.69;4952287;28;10252;-68
2024/01/04 04:22:28;;;;;;;;;0.00;0.00;;;;;8.52;94.25;99834.94;4964062;28;10265;-68
2024/01/04 04:24:54;;;;;;;;;0.75;0.00;;;;;8.50;94.62;99839.66;4951597;28;10232;-68
2024/01/04 04:27:21;;;;;;;;;0.00;0.00;;;;;8.50;95.02;99840.47;4949931;28;10330;-68
2024/01/04 04:29:48;;;;;;;;;0.00;0.00;;;;;8.48;95.13;99841.72;4952025;28;10230;-68
2024/01/04 04:32:14;;;;;;;;;0.00;0.00;;;;;8.47;95.06;99842.75;4950698;28;10488;-68
2024/01/04 04:34:41;;;;;;;;;0.00;0.00;;;;;8.47;94.99;99842.75;4966144;28;10309;-68
2024/01/04 04:37:08;;;;;;;;;0.75;0.75;;;;;8.47;95.17;99842.75;4949136;28;10232;-68
2024/01/04 04:39:35;;;;;;;;;0.00;0.00;;;;;8.46;95.24;99843.78;4951940;28;10317;-68
2024/01/04 04:42:02;;;;;;;;;0.75;0.00;;;;;8.47;95.10;99856.16;4950609;28;10224;-68
2024/01/04 04:44:28;;;;;;;;;0.00;0.00;;;;;8.47;95.24;99861.50;4949391;28;10242;-68
2024/01/04 04:46:57;;;;;;;;;0.00;0.00;;;;;8.46;95.32;99866.06;4951113;28;10378;-68
2024/01/04 04:49:23;;;;;;;;;0.00;0.00;;;;;8.47;95.43;99873.09;4954997;28;10289;-68
2024/01/04 04:51:50;;;;;;;;;0.00;0.00;;;;;8.49;95.37;99873.69;4949550;28;10406;-68
2024/01/04 04:54:17;;;;;;;;;0.00;0.00;;;;;8.52;95.71;99884.03;4950387;28;10962;-68
2024/01/04 04:56:43;;;;;;;;;0.00;0.00;;;;;8.53;95.83;99884.84;4964538;28;10261;-68
2024/01/04 04:59:12;;;;;;;;;0.00;0.00;;;;;8.53;95.99;99880.31;4951352;29;10482;-68
2024/01/04 05:01:40;;;;;;;;;0.00;0.00;;;;;8.53;95.37;99887.53;4948004;28;10503;-68
2024/01/04 05:04:06;;;;;;;;;0.00;0.00;;;;;8.53;95.62;99884.84;4950970;29;10549;-68
2024/01/04 05:06:33;;;;;;;;;0.00;0.00;;;;;8.51;95.51;99889.63;4948572;28;10374;-68
2024/01/04 05:09:00;;;;;;;;;0.00;0.00;;;;;8.50;95.85;99902.16;4950503;29;10370;-68
2024/01/04 05:11:26;;;;;;;;;0.00;0.00;;;;;8.52;95.65;99893.94;4950106;29;10331;-68
2024/01/04 05:13:53;;;;;;;;;0.00;0.00;;;;;8.52;95.69;99894.75;4949862;28;10240;-68
2024/01/04 05:16:19;;;;;;;;;0.00;0.00;;;;;8.52;96.03;99897.44;4965208;28;10395;-68
2024/01/04 05:18:46;;;;;;;;;0.00;0.00;;;;;8.52;95.48;99896.63;4949692;29;10359;-68
2024/01/04 05:21:13;;;;;;;;;0.00;0.00;;;;;8.51;95.62;99897.66;4949485;29;10367;-68
2024/01/04 05:23:39;;;;;;;;;0.00;0.00;;;;;8.49;96.17;99894.34;4934533;29;10304;-68
2024/01/04 05:26:06;;;;;;;;;0.00;0.00;;;;;8.51;96.25;99905.69;4944314;28;10499;-68
2024/01/04 05:28:33;;;;;;;;;0.00;0.00;;;;;8.49;96.31;99910.44;4954488;28;10321;-68
2024/01/04 05:30:59;;;;;;;;;1.00;1.00;;;;;8.50;96.17;99920.94;4951876;28;10388;-68
2024/01/04 05:33:26;;;;;;;;;1.00;0.00;;;;;8.51;96.43;99925.31;4949619;29;10244;-68
2024/01/04 05:35:53;;;;;;;;;0.00;0.00;;;;;8.52;96.33;99920.75;4948974;28;10387;-68
2024/01/04 05:38:19;;;;;;;;;1.00;0.00;;;;;8.52;96.16;99928.81;4949468;28;11093;-68
2024/01/04 05:40:46;;;;;;;;;0.00;0.00;;;;;8.51;96.19;99929.84;4948153;28;10436;-68
2024/01/04 05:43:12;;;;;;;;;0.75;0.00;;;;;8.49;96.40;99940.75;4948921;29;10262;-68
2024/01/04 05:45:39;;;;;;;;;0.25;0.00;;;;;8.47;96.02;99933.94;4950559;28;10389;-68
2024/01/04 05:48:06;;;;;;;;;0.00;0.00;;;;;8.40;96.02;99941.97;4949409;28;10393;-68
2024/01/04 05:50:33;;;;;;;;;0.00;0.00;;;;;8.38;96.26;99941.34;4956836;28;10904;-68
2024/01/04 05:52:59;;;;;;;;;0.00;0.00;;;;;8.35;96.04;99945.22;4950521;29;10183;-68
2024/01/04 05:55:27;;;;;;;;;0.00;0.00;;;;;8.29;96.23;99948.72;4949041;28;10986;-68
2024/01/04 05:57:53;;;;;;;;;0.00;0.00;;;;;8.32;96.51;99951.00;4952632;28;11048;-68
2024/01/04 06:00:20;;;;;;;;;0.50;0.00;;;;;8.33;96.90;99963.38;4952575;28;10172;-68
2024/01/04 06:02:47;;;;;;;;;1.00;1.00;;;;;8.35;96.63;99971.22;4950775;28;11613;-68
2024/01/04 06:05:14;;;;;;;;;1.75;1.00;;;;;8.35;96.97;99968.53;4950083;28;10311;-69
2024/01/04 06:07:41;;;;;;;;;0.00;0.00;;;;;8.32;96.35;99976.97;4952575;28;10298;-69
2024/01/04 06:10:07;;;;;;;;;0.00;0.00;;;;;8.29;96.60;99985.41;4945689;28;10313;-68
2024/01/04 06:12:34;;;;;;;;;0.00;0.00;;;;;8.28;96.55;99981.09;4954149;28;10455;-68
2024/01/04 06:15:03;;;;;;;;;0.00;0.00;;;;;8.30;97.11;99982.53;4954646;28;10363;-68
2024/01/04 06:17:29;;;;;;;;;0.00;0.00;;;;;8.33;97.00;99976.78;4948323;28;10249;-70
2024/01/04 06:19:56;;;;;;;;;1.00;0.00;;;;;8.34;96.83;99989.16;4952492;28;10306;-68
2024/01/04 06:22:23;;;;;;;;;0.00;0.00;;;;;8.35;96.71;100001.53;4953902;28;10389;-69
2024/01/04 06:24:49;;;;;;;;;0.75;0.75;;;;;8.37;96.92;99998.69;4954049;28;10311;-68
2024/01/04 06:27:16;;;;;;;;;1.75;1.75;;;;;8.34;96.57;100001.72;4955567;28;11246;-68
2024/01/04 06:29:44;;;;;;;;;0.00;0.00;;;;;8.35;96.52;100009.59;4949233;28;10372;-68
2024/01/04 06:32:11;;;;;;;;;0.00;0.00;;;;;8.37;96.61;100017.47;4965070;28;10402;-68
2024/01/04 06:34:38;;;;;;;;;0.00;0.00;;;;;8.39;96.95;100013.56;4964946;28;10304;-68
2024/01/04 06:37:04;;;;;;;;;0.50;0.00;;;;;8.38;96.58;100021.78;4952856;28;10324;-68
2024/01/04 06:39:31;;;;;;;;;0.00;0.00;;;;;8.39;96.54;100018.09;4953915;28;10468;-68
2024/01/04 06:41:57;;;;;;;;;0.00;0.00;;;;;8.38;96.77;100032.50;4952710;28;10327;-68
2024/01/04 06:44:24;;;;;;;;;1.00;1.00;;;;;8.38;96.68;100036.00;4953870;28;10230;-68
2024/01/04 06:47:03;;;;;;;;;1.00;0.00;;;;;8.35;96.11;100036.41;4966889;28;10413;-68
2024/01/04 06:49:30;;;;;;;;;1.00;1.00;;;;;8.35;96.64;100033.72;4952630;28;10449;-68
2024/01/04 06:51:57;;;;;;;;;1.50;0.25;;;;;8.35;96.55;100031.03;4953534;28;10449;-68
2024/01/04 06:54:24;;;;;;;;;0.00;0.00;;;;;8.37;96.26;100042.41;4953897;28;10300;-68
2024/01/04 06:56:51;;;;;;;;;0.00;0.00;;;;;8.36;95.96;100045.28;4972625;28;10177;-68
2024/01/04 06:59:17;;;;;;;;;0.75;0.75;;;;;8.33;96.64;100048.34;4974708;28;10323;-68
2024/01/04 07:01:44;;;;;;;;;1.00;1.00;;;;;8.32;96.58;100050.22;4952259;28;10642;-68
2024/01/04 07:04:10;;;;;;;;;0.75;0.50;;;;;8.32;96.51;100046.69;4952051;28;10345;-68
2024/01/04 07:06:40;;;;;;;;;3.00;2.00;;;;;8.32;96.78;100052.06;4953334;28;11070;-67
2024/01/04 07:09:06;;;;;;;;;2.50;2.00;;;;;8.32;96.47;100054.75;4953808;28;10508;-68
2024/01/04 07:11:33;;;;;;;;;3.50;3.50;;;;;8.31;96.58;100058.47;4952985;28;10417;-68
2024/01/04 07:14:00;;;;;;;;;3.00;3.00;;;;;8.30;96.55;100062.97;4952184;28;10329;-68
2024/01/04 07:16:27;;;;;;;;;3.00;3.00;;;;;8.32;96.55;100062.78;4953098;28;10490;-68
2024/01/04 07:18:53;;;;;;;;;3.00;3.00;;;;;8.31;96.78;100064.66;4953420;28;10535;-68
2024/01/04 07:21:20;;;;;;;;;1.50;1.25;;;;;8.31;96.57;100069.19;4951819;28;10686;-67
2024/01/04 07:23:47;;;;;;;;;1.00;1.00;;;;;8.31;96.78;100074.56;4953441;28;10467;-67
2024/01/04 07:26:14;;;;;;;;;0.00;0.00;;;;;8.30;96.58;100083.59;4951951;28;10384;-68
2024/01/04 07:28:41;;;;;;;;;0.75;0.75;;;;;8.29;96.95;100088.13;4953135;28;10365;-68
2024/01/04 07:31:08;;;;;;;;;1.00;1.00;;;;;8.30;96.85;100088.97;4951734;28;10457;-69
2024/01/04 07:33:35;;;;;;;;;2.00;2.00;;;;;8.30;96.81;100081.75;4952990;28;10453;-68
2024/01/04 07:36:02;;;;;;;;;0.50;0.50;;;;;8.35;96.75;100094.56;4967771;28;10392;-68
2024/01/04 07:38:29;;;;;;;;;0.25;0.25;;;;;8.34;96.89;100093.72;4951786;28;10228;-68
2024/01/04 07:40:55;;;;;;;;;0.50;0.50;;;;;8.33;96.22;100100.13;4952852;28;10991;-68
2024/01/04 07:43:22;;;;;;;;;2.00;0.75;;;;;8.33;96.68;100096.63;4951407;28;10256;-68
2024/01/04 07:45:49;;;;;;;;;1.00;1.00;;;;;8.33;96.15;100093.94;4951272;28;10403;-68
2024/01/04 07:48:15;;;;;;;;;1.75;1.75;;;;;8.32;96.90;100103.84;4946230;23;10409;-68
2024/01/04 07:50:42;;;;;;;;;0.75;0.75;;;;;8.30;96.19;100113.09;4924451;29;10253;-68
2024/01/04 07:53:09;;;;;;;;;1.00;1.00;;;;;8.28;96.14;100112.47;4914666;29;10444;-68
2024/01/04 07:55:35;;;;;;;;;1.00;1.00;;;;;8.26;96.32;100117.19;4929133;29;10574;-68
2024/01/04 07:58:02;;;;;;;;;5.00;3.00;;;;;8.24;96.59;100117.41;4914722;29;10404;-68
2024/01/04 08:00:29;;;;;;;;;6.00;2.00;;;;;8.23;96.29;100123.78;4929255;29;10502;-68
2024/01/04 08:02:56;;;;;;;;;5.00;3.00;;;;;8.21;96.42;100127.69;4914274;29;10476;-67
2024/01/04 08:05:22;;;;;;;;;3.00;3.00;;;;;8.18;96.03;100121.72;4914660;29;10580;-68
2024/01/04 08:07:49;;;;;;;;;3.00;3.00;;;;;8.19;96.90;100135.94;4914464;29;10591;-68
2024/01/04 08:10:16;;;;;;;;;1.75;1.75;;;;;8.17;96.42;100135.28;4929012;29;10482;-68
2024/01/04 08:12:45;;;;;;;;;1.00;1.00;;;;;8.19;96.88;100138.63;4913009;29;10585;-68
2024/01/04 08:15:12;;;;;;;;;2.00;2.00;;;;;8.18;96.40;100140.47;4914746;29;10494;-68
2024/01/04 08:17:39;;;;;;;;;2.00;2.00;;;;;8.20;96.55;100147.47;4914228;29;10671;-68
2024/01/04 08:20:06;;;;;;;;;1.00;1.00;;;;;8.21;96.68;100141.09;4896885;29;10568;-68
2024/01/04 08:22:33;;;;;;;;;1.00;1.00;;;;;8.23;96.63;100131.84;4928535;29;11195;-68
2024/01/04 08:25:00;;;;;;;;;1.00;1.00;;;;;8.24;96.77;100144.22;4914368;29;10523;-68
2024/01/04 08:27:26;;;;;;;;;1.75;1.75;;;;;8.26;96.53;100147.50;4914301;29;10796;-67
2024/01/04 08:29:53;;;;;;;;;1.00;1.00;;;;;8.28;96.86;100150.84;4914261;29;10384;-68
2024/01/04 08:32:20;;;;;;;;;1.75;1.75;;;;;8.26;96.83;100144.81;4913993;29;10348;-68
2024/01/04 08:34:47;;;;;;;;;0.50;0.00;;;;;8.25;96.31;100151.22;4913182;29;10460;-67
2024/01/04 08:37:14;;;;;;;;;2.00;2.00;;;;;8.24;96.46;100152.25;4914590;29;10473;-68
2024/01/04 08:39:41;;;;;;;;;0.00;0.00;;;;;8.25;96.44;100153.91;4918282;29;10516;-68
2024/01/04 08:42:07;;;;;;;;;1.00;1.00;;;;;8.26;96.23;100155.56;4913820;29;10234;-68
2024/01/04 08:44:34;;;;;;;;;0.00;0.00;;;;;8.27;96.64;100161.78;4914153;29;10319;-68
2024/01/04 08:47:01;;;;;;;;;0.00;0.00;;;;;8.27;96.19;100161.78;4914423;29;10349;-69
2024/01/04 08:49:27;;;;;;;;;1.00;1.00;;;;;8.29;96.05;100165.91;4913988;29;10235;-69
2024/01/04 08:51:55;;;;;;;;;0.00;0.00;;;;;8.27;96.35;100164.44;4943712;29;10215;-69
2024/01/04 08:54:21;;;;;;;;;0.50;0.25;;;;;8.23;96.20;100166.69;4915197;29;10203;-69
2024/01/04 08:56:48;;;;;;;;;0.00;0.00;;;;;8.23;96.61;100169.38;4914014;29;10275;-68
2024/01/04 08:59:15;;;;;;;;;0.00;0.00;;;;;8.22;96.08;100173.06;4912814;29;10263;-69
2024/01/04 09:01:42;;;;;;;;;0.00;0.00;;;;;8.23;96.36;100172.06;4913753;29;10443;-67
2024/01/04 09:04:09;;;;;;;;;0.00;0.00;;;;;8.34;98.02;100174.16;4919019;29;10262;-68
2024/01/04 09:06:36;;;;;;;;;0.00;0.00;;;;;8.34;96.65;100179.53;4913746;29;10264;-69
2024/01/04 09:09:05;;;;;;;;;1.00;0.00;;;;;8.34;97.14;100184.06;4928439;29;10337;-68
2024/01/04 09:11:38;;;;;;;;;0.00;0.00;;;;;8.36;96.29;100188.22;4928254;29;10343;-68
2024/01/04 09:14:07;;;;;;;;;0.00;0.00;;;;;8.31;96.03;100179.94;4913916;29;10270;-69
2024/01/04 09:16:34;;;;;;;;;0.00;0.00;;;;;8.26;95.63;100179.69;4928368;29;10955;-68
2024/01/04 09:19:01;;;;;;;;;1.25;0.00;;;;;8.16;95.72;100190.75;4913724;29;10276;-68
2024/01/04 09:21:29;;;;;;;;;0.00;0.00;;;;;8.14;96.02;100195.50;4927849;29;10358;-68
2024/01/04 09:23:55;;;;;;;;;1.00;0.00;;;;;8.15;96.62;100190.97;4913779;29;10416;-68
2024/01/04 09:26:22;;;;;;;;;1.00;0.00;;;;;8.18;96.53;100202.13;4913736;29;10290;-68
2024/01/04 09:28:48;;;;;;;;;0.00;0.00;;;;;8.19;96.52;100208.31;4926285;29;10375;-68
2024/01/04 09:31:15;;;;;;;;;0.00;0.00;;;;;8.20;95.86;100209.97;4922696;29;10446;-68
2024/01/04 09:33:42;;;;;;;;;1.50;0.00;;;;;8.21;95.81;100203.59;4931908;29;10349;-68
2024/01/04 09:36:09;;;;;;;;;0.00;0.00;;;;;8.16;95.41;100214.06;4917410;29;10323;-68
2024/01/04 09:38:35;;;;;;;;;0.00;0.00;;;;;8.13;95.88;100223.31;4917256;29;10394;-69
2024/01/04 09:41:17;;;;;;;;;0.00;0.00;;;;;8.12;95.75;100228.88;4917613;29;10965;-68
2024/01/04 09:43:44;;;;;;;;;1.00;0.00;;;;;8.12;95.30;100226.19;4931921;29;10339;-69
2024/01/04 09:46:17;;;;;;;;;0.00;0.00;;;;;8.11;94.96;100224.53;4925711;29;10443;-68
2024/01/04 09:48:58;;;;;;;;;0.25;0.00;;;;;8.11;95.51;100229.91;4917143;29;10387;-70
2024/01/04 09:51:27;;;;;;;;;0.00;0.00;;;;;8.12;95.70;100232.38;4916847;29;10174;-69
2024/01/04 09:53:55;;;;;;;;;0.00;0.00;;;;;8.12;95.80;100237.75;4916775;29;10435;-68
2024/01/04 09:56:23;;;;;;;;;0.00;0.00;;;;;8.12;95.33;100239.59;4931448;29;10290;-69
2024/01/04 09:58:50;;;;;;;;;0.00;0.00;;;;;8.13;96.20;100254.66;4921932;29;10483;-69
2024/01/04 10:01:24;;;;;;;;;0.00;0.00;;;;;8.16;96.09;100255.09;4898580;29;10331;-68
2024/01/04 10:03:53;;;;;;;;;1.00;1.00;;;;;8.20;95.73;100257.41;4914162;29;10291;-69
2024/01/04 10:06:37;;;;;;;;;0.00;0.00;;;;;8.21;95.57;100269.78;4916784;29;10246;-69
2024/01/04 10:09:31;;;;;;;;;1.00;1.00;;;;;8.14;95.52;100269.72;4918792;29;10394;-68
2024/01/04 10:12:05;;;;;;;;;1.00;0.00;;;;;8.13;95.86;100276.94;4916164;29;10340;-68
2024/01/04 10:14:32;;;;;;;;;2.00;0.50;;;;;8.10;95.49;100280.00;4916675;29;10258;-68
2024/01/04 10:16:59;;;;;;;;;0.00;0.00;;;;;8.03;95.73;100270.25;4916539;29;10372;-69
2024/01/04 10:19:29;;;;;;;;;0.00;0.00;;;;;8.00;95.92;100278.66;4916572;29;10295;-68
2024/01/04 10:22:01;;;;;;;;;0.00;0.00;;;;;7.98;95.73;100286.06;4916307;29;10406;-69
2024/01/04 10:24:29;;;;;;;;;0.00;0.00;;;;;7.93;95.71;100276.72;4916652;29;10980;-68
2024/01/04 10:26:57;;;;;;;;;0.00;0.00;;;;;7.84;95.59;100282.41;4896091;29;10397;-69
2024/01/04 10:29:28;;;;;;;;;0.25;0.00;;;;;7.86;96.14;100285.75;4897659;29;10253;-68
2024/01/04 10:32:03;;;;;;;;;0.00;0.00;;;;;7.89;96.11;100278.13;4911703;29;10271;-68
2024/01/04 10:34:33;;;;;;;;;0.00;0.00;;;;;7.90;95.93;100282.50;4912852;29;10407;-68
2024/01/04 10:37:11;;;;;;;;;0.00;0.00;;;;;7.94;96.37;100285.63;4916240;29;10416;-69
2024/01/04 10:39:37;;;;;;;;;0.00;0.00;;;;;7.92;96.22;100280.44;4914899;29;10936;-69
2024/01/04 10:42:05;;;;;;;;;0.75;0.00;;;;;7.95;95.68;100281.09;4913960;29;10332;-69
2024/01/04 10:44:35;;;;;;;;;0.00;0.00;;;;;7.94;96.08;100277.59;4914853;29;10179;-69
2024/01/04 10:47:04;;;;;;;;;0.00;0.00;;;;;7.89;95.57;100271.94;4916072;29;10394;-69
2024/01/04 10:49:31;;;;;;;;;0.00;0.00;;;;;7.89;95.89;100270.09;4916059;29;10378;-69
2024/01/04 10:52:00;;;;;;;;;0.00;0.00;;;;;7.88;95.97;100271.13;4930511;29;10290;-68
2024/01/04 10:54:32;;;;;;;;;0.00;0.00;;;;;7.87;95.94;100274.00;4914685;29;10414;-70
2024/01/04 10:57:00;;;;;;;;;0.00;0.00;;;;;7.83;95.37;100278.91;4915969;29;10332;-70
2024/01/04 10:59:32;;;;;;;;;0.00;0.00;;;;;7.85;96.10;100284.91;4915863;29;10440;-67
2024/01/04 11:02:00;;;;;;;;;0.00;0.00;;;;;7.83;95.82;100280.75;4915547;29;10261;-69
2024/01/04 11:04:28;;;;;;;;;0.00;0.00;;;;;7.86;96.44;100283.06;4915841;29;10394;-67
2024/01/04 11:06:57;;;;;;;;;0.00;0.00;;;;;7.88;95.97;100283.69;4915844;29;10414;-67
2024/01/04 11:09:25;;;;;;;;;0.00;0.00;;;;;7.93;96.36;100290.13;4915540;29;10345;-68
2024/01/04 11:11:54;;;;;;;;;0.00;0.00;;;;;7.99;96.17;100287.72;4915361;29;10403;-67
2024/01/04 11:14:21;;;;;;;;;0.00;0.00;;;;;8.06;96.18;100280.56;4917827;29;10339;-67
2024/01/04 11:17:04;;;;;;;;;0.00;0.00;;;;;8.02;95.63;100274.78;4916970;29;10452;-70
2024/01/04 11:19:56;;;;;;;;;0.00;0.00;;;;;7.90;95.04;100274.47;4925961;29;10441;-67
2024/01/04 11:22:48;;;;;;;;;1.00;0.00;;;;;7.82;95.68;100287.13;4907471;29;10418;-68
2024/01/04 11:25:48;;;;;;;;;0.00;0.00;;;;;7.87;96.36;100285.56;4915130;29;10545;-67
2024/01/04 11:28:15;;;;;;;;;0.00;0.00;;;;;7.88;96.57;100279.16;4915227;29;10509;-67
2024/01/04 11:30:59;;;;;;;;;0.00;0.00;;;;;7.90;96.43;100273.63;4915273;29;10329;-67
2024/01/04 11:33:27;;;;;;;;;0.00;0.00;;;;;7.94;96.36;100280.28;4914807;29;10479;-67
2024/01/04 11:35:55;;;;;;;;;0.00;0.00;;;;;7.89;96.13;100285.34;4915231;29;10518;-67
2024/01/04 11:38:23;;;;;;;;;0.00;0.00;;;;;7.91;96.42;100278.78;4913681;29;10416;-68
2024/01/04 11:40:51;;;;;;;;;1.00;0.00;;;;;7.97;96.32;100277.19;4917275;29;10442;-67
2024/01/04 11:43:17;;;;;;;;;0.00;0.00;;;;;7.98;95.37;100272.66;4915068;29;10485;-66